Time;durP1;ratioP1;P1;durP2;ratioP2;P2;SDS_P1;SDS_P2;PMS_P1;PMS_P2;Temp;Humidity;BMP_temperature;BMP_pressure;BME280_temperature;BME280_humidity;BME280_pressure;Samples;Min_cycle;Max_cycle;Signal;HPM_P1;HPM_P2
2021/04/17 04:44:39;;;;;;;34.50;17.35;;;;;;;6.00;100.00;101251.34;1739962;81;21081;-91
2021/04/17 04:47:39;;;;;;;32.60;17.25;;;;;;;6.17;100.00;101257.48;1702246;83;21140;-91
2021/04/17 04:50:15;;;;;;;22.52;16.12;;;;;;;6.27;100.00;101250.13;1694605;83;21207;-89
2021/04/17 04:52:45;;;;;;;32.98;16.02;;;;;;;6.43;100.00;101256.73;1708428;82;21560;-92
2021/04/17 04:59:05;;;;;;;27.70;15.28;;;;;;;6.67;100.00;101262.94;1684087;84;21176;-91
2021/04/17 05:02:07;;;;;;;19.90;14.35;;;;;;;6.70;100.00;101261.47;1689952;83;21600;-92
2021/04/17 05:04:42;;;;;;;22.20;14.05;;;;;;;6.74;100.00;101266.89;1670089;85;21187;-90
2021/04/17 05:07:10;;;;;;;18.20;13.20;;;;;;;6.77;100.00;101271.47;1635819;86;21144;-89
2021/04/17 05:10:10;;;;;;;17.52;13.93;;;;;;;6.82;100.00;101266.50;1637913;86;21371;-91
2021/04/17 05:25:48;;;;;;;20.45;14.73;;;;;;;7.05;100.00;101279.62;1698679;84;21180;-89
2021/04/17 05:32:41;;;;;;;18.00;15.93;;;;;;;7.10;100.00;101278.49;1615284;88;21202;-91
2021/04/17 05:39:34;;;;;;;18.25;16.15;;;;;;;7.01;100.00;101278.12;1610346;86;21203;-89
2021/04/17 05:45:56;;;;;;;17.98;16.07;;;;;;;6.96;100.00;101274.46;1658063;86;21601;-88
2021/04/17 05:48:25;;;;;;;20.25;17.67;;;;;;;6.96;100.00;101280.94;1657976;85;21610;-88
2021/04/17 05:50:58;;;;;;;23.75;19.60;;;;;;;6.96;100.00;101286.11;1658004;85;21218;-88
2021/04/17 05:53:28;;;;;;;21.33;18.67;;;;;;;6.98;100.00;101291.20;1658003;84;21183;-90
2021/04/17 06:03:29;;;;;;;22.93;19.87;;;;;;;7.03;100.00;101286.62;1657792;86;21160;-89
2021/04/17 06:09:54;;;;;;;23.12;19.20;;;;;;;7.06;100.00;101276.12;1657967;86;21175;-89
2021/04/17 06:12:25;;;;;;;25.00;20.72;;;;;;;7.17;100.00;101279.00;1668956;84;21156;-89
2021/04/17 06:18:24;;;;;;;22.35;19.95;;;;;;;7.34;100.00;101282.05;1687064;85;21172;-89
2021/04/17 06:21:02;;;;;;;22.95;19.98;;;;;;;7.48;100.00;101287.83;1687724;83;21159;-88
2021/04/17 06:23:59;;;;;;;31.02;19.35;;;;;;;7.52;100.00;101285.45;1660269;85;21155;-91
2021/04/17 06:26:28;;;;;;;20.60;18.32;;;;;;;7.55;100.00;101290.92;1632794;86;21639;-91
2021/04/17 06:28:58;;;;;;;20.15;18.02;;;;;;;7.57;100.00;101295.11;1674190;84;22133;-91
2021/04/17 06:31:27;;;;;;;20.95;18.37;;;;;;;7.55;100.00;101296.97;1670235;85;21214;-92
2021/04/17 06:33:56;;;;;;;18.70;16.80;;;;;;;7.50;100.00;101297.64;1670077;85;21617;-88
2021/04/17 06:36:52;;;;;;;19.32;16.73;;;;;;;7.51;100.00;101303.20;1637003;86;21155;-89
2021/04/17 06:39:24;;;;;;;18.32;16.50;;;;;;;7.54;100.00;101305.66;1669612;85;21608;-89
2021/04/17 06:41:56;;;;;;;19.60;17.52;;;;;;;7.55;100.00;101307.33;1630363;86;22446;-90
2021/04/17 06:44:25;;;;;;;19.45;17.35;;;;;;;7.55;100.00;101314.25;1645471;86;21195;-89
2021/04/17 06:46:53;;;;;;;20.32;18.23;;;;;;;7.56;100.00;101318.09;1634536;87;21211;-89
2021/04/17 06:49:26;;;;;;;20.45;18.42;;;;;;;7.59;100.00;101310.60;1608561;88;21239;-90
2021/04/17 06:56:18;;;;;;;21.35;17.70;;;;;;;7.67;100.00;101319.27;1605883;88;21176;-87
2021/04/17 07:03:10;;;;;;;21.12;18.82;;;;;;;7.69;100.00;101312.25;1687086;85;21548;-86
2021/04/17 07:10:04;;;;;;;24.05;21.40;;;;;;;7.73;100.00;101322.39;1684357;84;21140;-85
2021/04/17 07:16:59;;;;;;;24.95;22.20;;;;;;;7.76;100.00;101336.12;1664071;85;21248;-85
2021/04/17 07:23:51;;;;;;;25.80;23.10;;;;;;;7.67;100.00;101334.81;1695706;84;21164;-85
2021/04/17 07:30:28;;;;;;;22.98;20.40;;;;;;;7.64;100.00;101342.77;1624352;86;21308;-85
2021/04/17 07:37:21;;;;;;;22.75;19.95;;;;;;;7.60;100.00;101349.86;1604250;89;21172;-85
2021/04/17 07:44:11;;;;;;;;;;;;;;;7.60;100.00;101352.89;1672614;85;21124;-86
2021/04/17 07:50:59;;;;;;;23.83;20.40;;;;;;;7.55;100.00;101363.05;1670802;83;21152;-85
2021/04/17 07:57:56;;;;;;;24.95;22.30;;;;;;;7.49;100.00;101370.30;1677613;85;21184;-86
2021/04/17 08:09:12;;;;;;;25.30;22.58;;;;;;;7.52;100.00;101371.45;1639652;85;21184;-85
2021/04/17 08:16:05;;;;;;;30.90;24.45;;;;;;;7.53;100.00;101370.06;1654999;85;21644;-85
2021/04/17 08:22:58;;;;;;;23.52;21.05;;;;;;;7.56;100.00;101362.59;1670068;86;21175;-85
2021/04/17 08:29:53;;;;;;;26.68;23.87;;;;;;;7.62;100.00;101364.86;1680641;84;21148;-85
2021/04/17 08:36:33;;;;;;;25.23;22.58;;;;;;;7.69;100.00;101359.73;1659672;86;20284;-85
2021/04/17 08:43:30;;;;;;;25.15;22.42;;;;;;;7.77;100.00;101359.36;1699055;84;21620;-85
2021/04/17 08:50:37;;;;;;;26.73;21.82;;;;;;;7.89;100.00;101347.52;1658556;86;21191;-85
2021/04/17 09:01:43;;;;;;;23.38;21.12;;;;;;;8.10;100.00;101337.77;1652162;86;21169;-85
2021/04/17 09:13:18;;;;;;;24.70;22.17;;;;;;;8.46;100.00;101330.20;1657877;86;21176;-85
2021/04/17 09:24:37;;;;;;;26.33;23.52;;;;;;;9.02;100.00;101324.55;1624555;86;21599;-89
2021/04/17 09:27:09;;;;;;;48.58;37.17;;;;;;;9.20;100.00;101333.51;1635256;86;21572;-89
2021/04/17 09:29:38;;;;;;;45.43;36.45;;;;;;;9.30;100.00;101333.36;1651555;86;21171;-90
2021/04/17 09:32:07;;;;;;;29.85;26.70;;;;;;;9.39;100.00;101331.52;1656902;86;21451;-89
2021/04/17 09:34:38;;;;;;;28.10;25.10;;;;;;;9.45;100.00;101328.55;1657051;86;21092;-89
2021/04/17 09:37:11;;;;;;;32.35;28.80;;;;;;;9.52;100.00;101321.69;1656980;86;21243;-89
2021/04/17 09:39:45;;;;;;;;;;;;;;;9.60;100.00;101320.77;1659542;86;21204;-89
2021/04/17 09:42:13;;;;;;;64.95;42.25;;;;;;;9.69;100.00;101324.13;1654728;86;20499;-89
2021/04/17 09:44:49;;;;;;;44.45;31.20;;;;;;;9.77;100.00;101317.17;1657096;86;22299;-89
2021/04/17 09:47:18;;;;;;;30.97;24.75;;;;;;;9.86;100.00;101326.17;1634613;86;21250;-89
2021/04/17 09:49:50;;;;;;;25.82;23.00;;;;;;;9.91;100.00;101324.11;1634536;86;21754;-90
2021/04/17 09:52:23;;;;;;;80.62;51.88;;;;;;;9.91;100.00;101325.41;1634668;86;21219;-89
2021/04/17 09:55:02;;;;;;;109.48;76.70;;;;;;;9.88;100.00;101317.34;1654591;86;21213;-88
2021/04/17 10:05:59;;;;;;;20.52;18.42;;;;;;;10.00;100.00;101322.73;1657968;86;21152;-86
2021/04/17 10:12:54;;;;;;;19.45;17.55;;;;;;;10.15;100.00;101328.29;1657988;86;21180;-86
2021/04/17 10:19:49;;;;;;;32.53;28.12;;;;;;;10.22;100.00;101319.61;1657906;86;21156;-87
2021/04/17 10:27:06;;;;;;;22.17;19.77;;;;;;;10.38;100.00;101319.05;1657780;86;21172;-87
2021/04/17 10:29:47;;;;;;;21.65;19.35;;;;;;;10.49;100.00;101322.30;1657864;86;21088;-88
2021/04/17 10:44:44;;;;;;;17.32;15.58;;;;;;;11.03;100.00;101315.38;1657852;86;21144;-88
2021/04/17 10:51:39;;;;;;;17.35;15.65;;;;;;;10.98;100.00;101318.73;1657885;86;21171;-87
2021/04/17 10:54:07;;;;;;;;;;;;;;;10.95;100.00;101315.88;1660283;86;21160;-88
2021/04/17 10:56:37;;;;;;;14.98;13.48;;;;;;;10.97;100.00;101320.52;1657918;86;20257;-88
2021/04/17 11:10:30;;;;;;;17.40;15.68;;;;;;;11.19;100.00;101329.52;1657835;86;21156;-87
2021/04/17 11:21:45;;;;;;;17.82;16.12;;;;;;;11.49;100.00;101329.73;1657965;86;21096;-87
2021/04/17 11:28:07;;;;;;;15.60;14.10;;;;;;;11.81;100.00;101328.82;1657757;86;21599;-87
2021/04/17 11:30:42;;;;;;;16.02;14.47;;;;;;;11.71;100.00;101326.95;1657740;86;21195;-87
2021/04/17 11:33:44;;;;;;;18.00;15.10;;;;;;;11.61;100.00;101327.58;1635135;86;21172;-87
2021/04/17 11:43:11;;;;;;;16.40;14.90;;;;;;;12.02;100.00;101326.98;1657837;86;21172;-87
2021/04/17 11:45:40;;;;;;;17.45;15.72;;;;;;;12.19;100.00;101326.27;1657735;85;21159;-87
2021/04/17 11:48:11;;;;;;;14.85;13.55;;;;;;;12.21;100.00;101327.00;1657722;86;21199;-87
2021/04/17 11:51:09;;;;;;;;;;;;;;;12.21;100.00;101329.16;1660123;86;21200;-87
2021/04/17 11:57:41;;;;;;;14.73;13.22;;;;;;;12.24;100.00;101321.58;1657616;86;21199;-87
2021/04/17 12:00:17;;;;;;;15.10;13.60;;;;;;;12.23;100.00;101319.42;1657757;86;21203;-87
2021/04/17 12:02:53;;;;;;;14.70;13.20;;;;;;;12.14;100.00;101322.22;1629365;87;21125;-87
2021/04/17 12:05:22;;;;;;;13.25;11.95;;;;;;;12.18;100.00;101312.88;1652640;86;21157;-87
2021/04/17 12:07:52;;;;;;;14.25;12.88;;;;;;;12.19;100.00;101314.52;1632202;86;22275;-87
2021/04/17 12:13:45;;;;;;;14.40;13.00;;;;;;;12.09;100.00;101311.73;1672418;84;21592;-87
2021/04/17 12:16:14;;;;;;;15.50;13.95;;;;;;;12.01;100.00;101317.97;1666051;85;21139;-87
2021/04/17 12:18:43;;;;;;;14.33;12.93;;;;;;;11.86;100.00;101320.67;1659440;86;21155;-87
2021/04/17 12:24:37;;;;;;;14.18;12.78;;;;;;;11.80;100.00;101318.50;1634851;86;21635;-87
2021/04/17 12:31:30;;;;;;;16.30;14.80;;;;;;;11.66;100.00;101309.83;1657867;86;21596;-87
2021/04/17 12:34:05;;;;;;;15.63;14.23;;;;;;;11.57;100.00;101310.48;1635397;86;21167;-87
2021/04/17 12:40:57;;;;;;;15.00;13.60;;;;;;;11.36;100.00;101314.89;1657653;86;21616;-86
2021/04/17 12:43:32;;;;;;;16.15;14.63;;;;;;;11.33;100.00;101312.97;1657497;86;21204;-86
2021/04/17 12:46:03;;;;;;;17.52;15.75;;;;;;;11.31;100.00;101317.44;1634663;86;21155;-86
2021/04/17 12:48:32;;;;;;;19.10;17.23;;;;;;;11.27;100.00;101315.51;1657761;86;22649;-87
2021/04/17 12:51:07;;;;;;;21.35;19.15;;;;;;;11.29;100.00;101317.55;1657595;86;21446;-86
2021/04/17 12:53:36;;;;;;;20.35;18.25;;;;;;;11.38;100.00;101314.78;1657561;86;21144;-87
2021/04/17 13:00:30;;;;;;;20.25;18.25;;;;;;;11.52;100.00;101316.02;1657842;86;21200;-89
2021/04/17 13:07:04;;;;;;;22.93;20.60;;;;;;;11.50;100.00;101319.64;1658016;86;21576;-86
2021/04/17 13:13:56;;;;;;;24.92;22.37;;;;;;;11.53;100.00;101318.14;1658018;86;21192;-86
2021/04/17 13:20:48;;;;;;;26.75;20.82;;;;;;;11.54;100.00;101324.20;1658013;86;21229;-88
2021/04/17 13:23:18;;;;;;;22.60;20.30;;;;;;;11.50;100.00;101324.85;1658080;86;21922;-90
2021/04/17 13:30:11;;;;;;;22.20;19.42;;;;;;;11.47;100.00;101323.30;1657937;86;21168;-90
2021/04/17 13:37:07;;;;;;;17.98;15.30;;;;;;;11.53;100.00;101319.44;1657987;86;21156;-88
2021/04/17 13:43:58;;;;;;;17.50;14.50;;;;;;;11.39;100.00;101325.58;1657929;86;21603;-89
2021/04/17 13:54:39;;;;;;;16.40;14.23;;;;;;;11.14;100.00;101336.83;1658133;86;21184;-89
2021/04/17 14:00:59;;;;;;;18.12;14.33;;;;;;;10.99;100.00;101332.14;1657101;86;21172;-86
2021/04/17 14:03:28;;;;;;;17.42;13.53;;;;;;;10.95;100.00;101334.59;1621867;88;21278;-86
2021/04/17 14:05:57;;;;;;;12.37;10.82;;;;;;;10.93;100.00;101332.55;1640767;86;21183;-87
2021/04/17 14:08:27;;;;;;;9.95;8.95;;;;;;;10.92;100.00;101335.63;1605743;87;21211;-86
2021/04/17 14:11:31;;;;;;;8.70;7.80;;;;;;;10.94;100.00;101332.92;1606532;87;21224;-86
2021/04/17 14:13:59;;;;;;;7.95;7.25;;;;;;;10.97;100.00;101341.38;1659066;84;21229;-86
2021/04/17 14:16:36;;;;;;;8.30;7.47;;;;;;;11.02;100.00;101337.98;1692217;84;21167;-86
2021/04/17 14:19:05;;;;;;;7.10;6.50;;;;;;;11.04;100.00;101340.03;1686997;85;21132;-86
2021/04/17 14:22:03;;;;;;;10.28;7.30;;;;;;;11.05;100.00;101334.37;1687062;85;21568;-85
2021/04/17 14:25:00;;;;;;;7.70;6.90;;;;;;;11.05;100.00;101337.80;1687172;85;22261;-86
2021/04/17 14:27:39;;;;;;;7.10;6.47;;;;;;;11.04;100.00;101336.13;1687303;85;21179;-87
2021/04/17 14:30:08;;;;;;;8.10;7.30;;;;;;;11.02;100.00;101330.17;1666268;85;21485;-86
2021/04/17 14:32:39;;;;;;;8.15;7.30;;;;;;;11.01;100.00;101331.13;1665486;85;21200;-86
2021/04/17 14:35:09;;;;;;;7.85;7.15;;;;;;;10.99;100.00;101335.59;1687293;85;21216;-87
2021/04/17 14:37:39;;;;;;;7.72;7.03;;;;;;;10.97;100.00;101339.25;1687217;85;22286;-88
2021/04/17 14:40:10;;;;;;;6.22;5.72;;;;;;;10.93;100.00;101332.55;1666546;84;21198;-88
2021/04/17 14:47:05;;;;;;;5.25;4.75;;;;;;;10.86;100.00;101342.52;1643104;87;21193;-87
2021/04/17 14:49:37;;;;;;;5.72;5.22;;;;;;;10.86;100.00;101330.80;1612929;87;21169;-89
2021/04/17 14:52:06;;;;;;;6.12;5.53;;;;;;;10.85;100.00;101331.28;1654313;86;21387;-85
2021/04/17 14:54:35;;;;;;;6.08;5.47;;;;;;;10.83;100.00;101333.62;1623866;86;21132;-85
2021/04/17 15:00:31;;;;;;;7.30;6.60;;;;;;;10.83;100.00;101336.23;1656961;86;21175;-88
2021/04/17 15:03:01;;;;;;;11.45;6.97;;;;;;;10.83;100.00;101330.53;1656626;85;21183;-87
2021/04/17 15:05:29;;;;;;;9.33;6.93;;;;;;;10.82;100.00;101329.34;1656633;86;21403;-85
2021/04/17 15:07:58;;;;;;;7.15;6.47;;;;;;;10.81;100.00;101327.67;1656452;85;21215;-85
2021/04/17 15:10:27;;;;;;;8.40;7.42;;;;;;;10.80;100.00;101335.97;1656512;86;21164;-88
2021/04/17 15:12:55;;;;;;;8.20;7.40;;;;;;;10.81;100.00;101332.43;1656713;86;21160;-86
2021/04/17 15:15:25;;;;;;;15.45;8.18;;;;;;;10.81;100.00;101337.64;1656533;86;21199;-86
2021/04/17 15:18:02;;;;;;;;;;;;;;;10.81;100.00;101336.78;1626767;86;21575;-86
2021/04/17 15:20:33;;;;;;;8.38;7.50;;;;;;;10.81;100.00;101334.18;1656786;86;20221;-87
2021/04/17 15:23:03;;;;;;;7.83;6.60;;;;;;;10.78;100.00;101336.52;1653148;86;21585;-88
2021/04/17 15:25:33;;;;;;;8.43;6.95;;;;;;;10.76;100.00;101331.05;1656853;85;21211;-87
2021/04/17 15:28:05;;;;;;;9.75;7.05;;;;;;;10.72;100.00;101329.93;1656838;86;21184;-88
2021/04/17 15:31:03;;;;;;;9.73;6.45;;;;;;;10.72;100.00;101331.72;1656816;85;22306;-88
2021/04/17 15:33:31;;;;;;;9.45;6.17;;;;;;;10.70;100.00;101329.19;1656733;85;21225;-88
2021/04/17 15:36:01;;;;;;;7.10;6.33;;;;;;;10.67;100.00;101326.80;1661316;83;21172;-88
2021/04/17 15:38:30;;;;;;;11.65;6.53;;;;;;;10.67;100.00;101322.04;1637996;86;21265;-88
2021/04/17 15:41:04;;;;;;;8.03;6.42;;;;;;;10.64;100.00;101317.05;1656992;86;21245;-88
2021/04/17 15:43:36;;;;;;;8.48;6.50;;;;;;;10.65;100.00;101320.84;1656842;86;21440;-88
2021/04/17 15:46:10;;;;;;;10.10;6.42;;;;;;;10.63;100.00;101314.89;1672056;84;21198;-88
2021/04/17 15:48:40;;;;;;;9.20;6.90;;;;;;;10.61;100.00;101315.48;1686687;85;21724;-88
2021/04/17 15:51:10;;;;;;;7.97;7.17;;;;;;;10.58;100.00;101314.36;1686586;85;21171;-88
2021/04/17 15:53:39;;;;;;;8.58;6.87;;;;;;;10.57;100.00;101317.89;1686588;85;21092;-88
2021/04/17 15:56:08;;;;;;;7.47;6.17;;;;;;;10.54;100.00;101312.87;1686529;85;21470;-88
2021/04/17 16:15:22;;;;;;;17.12;11.60;;;;;;;10.54;100.00;101324.14;1671138;84;21619;-88
2021/04/17 16:21:48;;;;;;;26.55;11.35;;;;;;;10.62;100.00;101315.82;1646864;85;21120;-86
2021/04/17 16:24:17;;;;;;;23.42;11.18;;;;;;;10.63;100.00;101325.31;1661297;85;22277;-87
2021/04/17 16:26:46;;;;;;;16.87;9.88;;;;;;;10.65;100.00;101325.23;1697967;84;21229;-86
2021/04/17 16:36:10;;;;;;;17.48;8.35;;;;;;;10.67;100.00;101341.57;1676985;84;21209;-87
2021/04/17 16:38:40;;;;;;;14.98;9.50;;;;;;;10.69;100.00;101350.98;1659300;84;21890;-87
2021/04/17 16:41:09;;;;;;;19.60;9.70;;;;;;;10.71;100.00;101362.12;1657256;86;21653;-87
2021/04/17 16:43:38;;;;;;;17.82;10.80;;;;;;;10.71;100.00;101348.27;1657473;85;21211;-87
2021/04/17 16:46:06;;;;;;;19.48;11.40;;;;;;;10.70;100.00;101348.72;1657387;86;21579;-87
2021/04/17 16:48:35;;;;;;;21.02;11.45;;;;;;;10.69;100.00;101347.08;1672498;85;21146;-88
2021/04/17 16:51:06;;;;;;;47.63;12.47;;;;;;;10.66;100.00;101347.27;1665323;85;21384;-87
2021/04/17 16:53:34;;;;;;;25.95;15.32;;;;;;;10.64;100.00;101347.81;1686308;85;21419;-87
2021/04/17 16:56:03;;;;;;;89.10;60.08;;;;;;;10.65;100.00;101354.70;1665093;85;21675;-87
2021/04/17 16:58:33;;;;;;;109.95;75.25;;;;;;;10.65;100.00;101351.28;1686366;85;21183;-87
2021/04/17 17:01:03;;;;;;;148.93;102.95;;;;;;;10.65;100.00;101361.69;1653937;85;37235;-87
2021/04/17 17:03:31;;;;;;;111.22;75.03;;;;;;;10.65;100.00;101363.81;1673765;84;21623;-86
2021/04/17 17:06:00;;;;;;;93.55;60.95;;;;;;;10.66;100.00;101364.19;1673956;84;21214;-86
2021/04/17 17:08:28;;;;;;;71.42;37.70;;;;;;;10.66;100.00;101363.34;1674137;84;21246;-87
2021/04/17 17:10:58;;;;;;;40.60;27.67;;;;;;;10.65;100.00;101371.63;1673925;84;21195;-86
2021/04/17 17:13:26;;;;;;;155.82;30.80;;;;;;;10.64;100.00;101369.14;1674045;85;21154;-86
2021/04/17 17:15:55;;;;;;;41.73;21.62;;;;;;;10.63;100.00;101366.98;1653753;84;22142;-86
2021/04/17 17:18:23;;;;;;;27.13;15.25;;;;;;;10.62;100.00;101370.52;1630912;86;21176;-86
2021/04/17 17:20:53;;;;;;;13.38;11.68;;;;;;;10.59;100.00;101368.13;1659429;86;21183;-87
2021/04/17 17:23:21;;;;;;;15.03;12.30;;;;;;;10.54;100.00;101367.55;1610580;87;21209;-86
2021/04/17 17:25:49;;;;;;;27.65;13.32;;;;;;;10.51;100.00;101368.59;1630045;86;21167;-86
2021/04/17 17:28:19;;;;;;;28.92;12.58;;;;;;;10.49;100.00;101368.32;1608836;88;21183;-87
2021/04/17 17:30:47;;;;;;;32.10;12.60;;;;;;;10.46;100.00;101373.27;1634266;86;21215;-86
2021/04/17 17:33:16;;;;;;;35.80;13.95;;;;;;;10.47;100.00;101373.63;1614260;86;21184;-86
2021/04/17 17:35:45;;;;;;;35.23;17.15;;;;;;;10.51;100.00;101379.48;1649936;86;21205;-86
2021/04/17 17:38:14;;;;;;;36.13;18.57;;;;;;;10.50;100.00;101379.11;1650536;86;21570;-86
2021/04/17 17:40:42;;;;;;;34.13;21.70;;;;;;;10.49;100.00;101371.78;1647121;86;21587;-86
2021/04/17 17:43:11;;;;;;;50.80;28.42;;;;;;;10.50;100.00;101372.60;1642127;86;21171;-86
2021/04/17 17:45:40;;;;;;;54.05;32.50;;;;;;;10.47;100.00;101381.89;1630291;87;21179;-86
2021/04/17 17:48:08;;;;;;;52.38;34.23;;;;;;;10.38;100.00;101379.41;1630349;87;21235;-86
2021/04/17 17:50:38;;;;;;;59.13;44.63;;;;;;;10.31;100.00;101376.31;1630419;87;21104;-86
2021/04/17 17:53:08;;;;;;;63.85;46.25;;;;;;;10.25;100.00;101384.51;1645977;85;22333;-86
2021/04/17 17:55:37;;;;;;;61.83;40.00;;;;;;;10.18;100.00;101385.81;1630365;87;21227;-86
2021/04/17 17:58:07;;;;;;;63.15;41.50;;;;;;;10.13;100.00;101387.88;1630597;87;21151;-86
2021/04/17 18:00:36;;;;;;;55.30;37.42;;;;;;;10.09;100.00;101391.12;1630468;87;21243;-86
2021/04/17 18:03:05;;;;;;;52.43;35.38;;;;;;;10.04;100.00;101390.10;1608566;88;21203;-86
2021/04/17 18:05:33;;;;;;;42.35;27.75;;;;;;;10.01;100.00;101388.16;1608645;88;21634;-86
2021/04/17 18:08:03;;;;;;;36.00;27.82;;;;;;;9.98;100.00;101383.95;1630349;87;21221;-85
2021/04/17 18:10:35;;;;;;;32.95;26.23;;;;;;;9.96;100.00;101385.83;1630299;87;21651;-86
2021/04/17 18:13:06;;;;;;;27.37;22.58;;;;;;;9.92;100.00;101384.32;1630443;87;21219;-86
2021/04/17 18:15:36;;;;;;;25.72;21.17;;;;;;;9.88;100.00;101374.56;1637029;86;21546;-86
2021/04/17 18:18:04;;;;;;;25.10;20.17;;;;;;;9.83;100.00;101375.32;1640640;86;22306;-86
2021/04/17 18:20:33;;;;;;;23.75;18.65;;;;;;;9.77;100.00;101372.61;1653999;85;21495;-86
2021/04/17 18:23:03;;;;;;;24.20;19.50;;;;;;;9.73;100.00;101376.34;1647368;86;21621;-86
2021/04/17 18:25:32;;;;;;;27.02;19.35;;;;;;;9.67;100.00;101375.86;1647809;86;21209;-87
2021/04/17 18:28:00;;;;;;;25.72;19.50;;;;;;;9.64;100.00;101372.98;1642750;86;21257;-85
2021/04/17 18:30:29;;;;;;;23.10;18.82;;;;;;;9.61;100.00;101371.38;1611680;88;21163;-85
2021/04/17 18:33:05;;;;;;;25.08;20.10;;;;;;;9.59;100.00;101365.89;1630319;88;21155;-85
2021/04/17 18:35:34;;;;;;;21.80;18.80;;;;;;;9.55;100.00;101365.23;1630480;88;21152;-85
2021/04/17 18:38:02;;;;;;;26.97;19.77;;;;;;;9.51;100.00;101367.66;1630428;88;21207;-85
2021/04/17 18:40:32;;;;;;;22.62;18.05;;;;;;;9.43;100.00;101359.00;1634234;86;21206;-85
2021/04/17 18:43:01;;;;;;;23.98;18.75;;;;;;;9.34;100.00;101363.42;1644528;86;21374;-85
2021/04/17 18:45:31;;;;;;;23.07;17.05;;;;;;;9.28;100.00;101370.28;1640443;86;21195;-85
2021/04/17 18:47:59;;;;;;;21.73;17.82;;;;;;;9.23;100.00;101356.73;1642244;86;21190;-85
2021/04/17 18:50:28;;;;;;;22.80;18.45;;;;;;;9.19;100.00;101353.92;1638665;86;21302;-85
2021/04/17 18:52:56;;;;;;;21.50;17.50;;;;;;;9.16;100.00;101351.04;1650026;86;21608;-85
2021/04/17 18:55:31;;;;;;;21.02;17.82;;;;;;;9.11;100.00;101351.30;1640268;85;21683;-85
2021/04/17 18:58:02;;;;;;;19.57;16.55;;;;;;;9.05;100.00;101350.36;1656253;86;21195;-85
2021/04/17 19:00:37;;;;;;;17.82;15.93;;;;;;;9.01;100.00;101359.27;1628680;88;21653;-85
2021/04/17 19:03:06;;;;;;;20.10;16.57;;;;;;;8.95;100.00;101354.39;1634805;86;21238;-85
2021/04/17 19:05:35;;;;;;;19.73;16.27;;;;;;;8.86;100.00;101351.86;1627284;87;21164;-86
2021/04/17 19:08:04;;;;;;;22.22;17.37;;;;;;;8.81;100.00;101352.59;1624334;87;21227;-85
2021/04/17 19:10:34;;;;;;;19.85;17.20;;;;;;;8.79;100.00;101350.06;1606277;86;21614;-85
2021/04/17 19:13:03;;;;;;;18.85;15.45;;;;;;;8.76;100.00;101348.09;1626825;87;21243;-86
2021/04/17 19:15:35;;;;;;;16.73;14.93;;;;;;;8.71;100.00;101344.45;1625622;88;21195;-85
2021/04/17 19:18:05;;;;;;;17.73;14.87;;;;;;;8.65;100.00;101346.10;1653350;86;21187;-85
2021/04/17 19:20:35;;;;;;;19.12;14.47;;;;;;;8.60;100.00;101346.83;1663872;86;21401;-85
2021/04/17 19:23:05;;;;;;;17.62;13.93;;;;;;;8.55;100.00;101343.19;1664155;86;21141;-85
2021/04/17 19:25:33;;;;;;;18.20;14.60;;;;;;;8.52;100.00;101337.71;1635658;86;21219;-85
2021/04/17 19:28:02;;;;;;;17.10;14.05;;;;;;;8.49;100.00;101339.64;1664182;86;21650;-85
2021/04/17 19:31:01;;;;;;;17.30;14.50;;;;;;;8.45;100.00;101340.20;1664252;85;21246;-85
2021/04/17 19:33:33;;;;;;;22.67;15.05;;;;;;;8.40;100.00;101339.63;1632412;86;21224;-85
2021/04/17 19:36:02;;;;;;;18.55;15.40;;;;;;;8.32;100.00;101345.25;1629172;85;21224;-85
2021/04/17 19:38:36;;;;;;;24.07;16.75;;;;;;;8.27;100.00;101353.72;1672104;84;21232;-85
2021/04/17 19:41:04;;;;;;;27.58;20.05;;;;;;;8.23;100.00;101345.74;1673966;84;21184;-85
2021/04/17 19:43:33;;;;;;;30.57;21.33;;;;;;;8.19;100.00;101345.52;1698554;83;21137;-85
2021/04/17 19:46:03;;;;;;;35.35;23.62;;;;;;;8.16;100.00;101345.69;1673845;84;21385;-85
2021/04/17 19:48:33;;;;;;;38.03;22.30;;;;;;;8.12;100.00;101350.20;1680810;85;21135;-85
2021/04/17 19:51:06;;;;;;;36.83;23.05;;;;;;;8.09;100.00;101351.66;1669501;85;21131;-85
2021/04/17 19:53:34;;;;;;;23.20;16.95;;;;;;;8.10;100.00;101353.78;1657657;86;21164;-85
2021/04/17 19:56:04;;;;;;;25.20;17.55;;;;;;;8.10;100.00;101353.78;1655776;85;21170;-85
2021/04/17 19:58:32;;;;;;;23.55;18.00;;;;;;;8.13;100.00;101356.22;1664172;85;21349;-85
2021/04/17 20:01:00;;;;;;;22.17;17.15;;;;;;;8.11;100.00;101358.91;1647632;85;21405;-84
2021/04/17 20:03:28;;;;;;;22.55;17.52;;;;;;;8.08;100.00;101359.05;1663909;84;21610;-84
2021/04/17 20:05:57;;;;;;;24.12;16.85;;;;;;;8.03;100.00;101359.77;1596320;86;21169;-84
2021/04/17 20:08:25;;;;;;;28.45;17.45;;;;;;;7.99;100.00;101358.23;1658764;85;21227;-84
2021/04/17 20:10:54;;;;;;;24.23;16.17;;;;;;;7.95;100.00;101360.62;1647117;85;21378;-85
2021/04/17 20:13:22;;;;;;;21.12;16.07;;;;;;;7.89;100.00;101357.41;1629174;86;21237;-85
2021/04/17 20:15:51;;;;;;;19.15;16.55;;;;;;;7.86;100.00;101362.78;1664358;84;21201;-85
2021/04/17 20:18:23;;;;;;;21.50;17.15;;;;;;;7.84;100.00;101356.83;1676926;84;21174;-85
2021/04/17 20:20:53;;;;;;;22.52;17.62;;;;;;;7.83;100.00;101365.52;1670307;84;21190;-88
2021/04/17 20:23:22;;;;;;;22.32;16.67;;;;;;;7.83;100.00;101360.80;1648139;85;22155;-87
2021/04/17 20:25:52;;;;;;;20.10;16.10;;;;;;;7.82;100.00;101358.66;1673523;84;21256;-85
2021/04/17 20:28:22;;;;;;;;;;;;;;;7.83;100.00;101360.34;1639432;85;21162;-85
2021/04/17 20:30:52;;;;;;;24.40;17.75;;;;;;;7.83;100.00;101362.92;1623516;87;20242;-84
2021/04/17 20:33:20;;;;;;;20.37;16.55;;;;;;;7.83;100.00;101360.34;1619814;86;21240;-84
2021/04/17 20:35:52;;;;;;;26.65;18.82;;;;;;;7.84;100.00;101360.72;1626360;86;22298;-84
2021/04/17 20:38:21;;;;;;;23.57;17.55;;;;;;;7.83;100.00;101357.74;1652277;86;21196;-84
2021/04/17 20:40:50;;;;;;;24.65;18.50;;;;;;;7.82;100.00;101362.55;1634711;86;21179;-84
2021/04/17 20:43:19;;;;;;;26.33;19.27;;;;;;;7.83;100.00;101360.80;1625388;88;21255;-84
2021/04/17 20:45:47;;;;;;;24.12;18.10;;;;;;;7.81;100.00;101358.74;1664106;85;21207;-85
2021/04/17 20:48:16;;;;;;;24.70;18.92;;;;;;;7.81;100.00;101362.16;1641660;85;21372;-84
2021/04/17 20:50:48;;;;;;;26.45;20.32;;;;;;;7.83;100.00;101361.63;1656952;86;21172;-87
2021/04/17 20:53:19;;;;;;;26.60;20.17;;;;;;;7.85;100.00;101353.32;1659540;86;21164;-87
2021/04/17 20:55:47;;;;;;;;;;;;;;;7.87;100.00;101356.69;1659120;86;21209;-87
2021/04/17 20:58:18;;;;;;;24.45;19.15;;;;;;;7.87;100.00;101355.38;1632679;86;20238;-87
2021/04/17 21:00:47;;;;;;;21.40;17.90;;;;;;;7.84;100.00;101355.53;1650842;86;22284;-85
2021/04/17 21:03:18;;;;;;;22.15;17.37;;;;;;;7.80;100.00;101355.33;1630389;87;21164;-85
2021/04/17 21:05:46;;;;;;;20.05;17.00;;;;;;;7.78;100.00;101358.45;1630421;86;21176;-84
2021/04/17 21:08:15;;;;;;;20.02;16.32;;;;;;;7.78;100.00;101355.00;1630513;87;21611;-85
2021/04/17 21:10:45;;;;;;;23.85;18.32;;;;;;;7.77;100.00;101353.35;1630335;87;21585;-84
2021/04/17 21:13:15;;;;;;;24.05;18.50;;;;;;;7.75;100.00;101352.11;1637152;86;21131;-85
2021/04/17 21:15:46;;;;;;;24.55;18.75;;;;;;;7.69;100.00;101353.73;1657247;86;21096;-84
2021/04/17 21:18:16;;;;;;;22.82;17.35;;;;;;;7.62;100.00;101351.08;1657266;86;21232;-84
2021/04/17 21:20:45;;;;;;;21.93;18.45;;;;;;;7.57;100.00;101353.42;1657170;86;21187;-84
2021/04/17 21:23:13;;;;;;;25.77;18.00;;;;;;;7.54;100.00;101352.74;1657342;86;21159;-84
2021/04/17 21:25:41;;;;;;;23.60;17.50;;;;;;;7.52;100.00;101358.02;1650311;86;21381;-84
2021/04/17 21:28:10;;;;;;;26.65;19.65;;;;;;;7.52;100.00;101358.48;1630878;85;21651;-85